Airfield :
LOGIN :

Register | Disclaimer

   EN    FR    IT 

 










Legend :    VFR   Marginal VFR   IFR   Intensive IFR   Very Intensive IFR
Visi :
Ceiling :
>= 8 km
>= 3000ft
5 to 8 km
1000 to 3000 ft
1500m to 5 km
500 to 1000 ft
800 to 1500m
200 to 500 ft
< 800m
< 200 ft
Symbols :   Thunderstorms  Fog  Heavy snow  Heavy precipitations  Wind > 20 kt
SIGMETs :     Misc.  Thunderstorms  Icing  Turbulence  Mountain Waves  Volcanic Ashes






- Airport Elevation : 183 ft
- IATA code : HAJ


EDDV - Hanover/Langenhagen Int.

CURRENT METAR :
  • 270820Z 24007KT 9999 FEW017 BKN022 03/00 Q1002 NOSIG

EXPIRED METARs :
  • 270750Z 24008KT 9999 BKN024 03/01 Q1002 NOSIG
  • 270720Z 25008KT 9999 FEW016 BKN025 03/M00 Q1002 NOSIG
  • 270650Z 24009KT 9999 FEW016 BKN027 03/00 Q1002 NOSIG
  • 270620Z 25008KT 9999 FEW012 BKN026 03/00 Q1002 NOSIG
  • 270550Z 25009KT 9999 FEW012 BKN014 03/01 Q1002 TEMPO SCT013

TAF TAF EDDV
Valid from the 27 at 06:00 until the 28 at 06:00 UTC


270500Z 2706/2806 24010KT 9999 BKN015
TEMPO 2706/2709 BKN010
BECMG 2714/2716 21004KT
BECMG 2720/2722 27008KT BKN012
TEMPO 2722/2802 2500 -SNRA BKN008
PROB30
TEMPO 2723/2801 1200 -SN BKN003
BECMG 2802/2804 SCT020



MET'MAP, your aeronautical weather chart ! - Copyright ORBIFLY December 2007 - Disclaimer

ORBIFLY MET'MAP TEAM :

Programming & Development : Alexandra Zaïnal
Concept & original design : Baudouin d'Aumeries
Assistance for programming : Marc-Olivier Méhu
Technical & hardware support : Manuel Goepfert

Contact : metmap@orbifly.com




SOURCES & CREDITS :

   NOAA